createdAt,value
2018-08-06T00:00:34.582Z,568.2
2018-08-06T00:01:37.026Z,568.3
2018-08-06T00:02:39.201Z,568.5
2018-08-06T00:03:41.370Z,568.2
2018-08-06T00:04:43.846Z,568.7
2018-08-06T00:05:45.488Z,568.5
2018-08-06T00:06:47.666Z,568.9
2018-08-06T00:07:49.841Z,568.8
2018-08-06T00:08:52.299Z,568.6
2018-08-06T00:09:54.748Z,568.8
2018-08-06T00:10:56.654Z,568.5
2018-08-06T00:11:58.538Z,568.5
2018-08-06T00:13:00.732Z,568.7
2018-08-06T00:14:02.344Z,568.4
2018-08-06T00:15:04.529Z,568.4
2018-08-06T00:16:06.400Z,568.4
2018-08-06T00:17:08.569Z,568.2
2018-08-06T00:18:10.771Z,568.6
2018-08-06T00:19:13.219Z,568.7
2018-08-06T00:20:15.667Z,568.4
2018-08-06T00:21:17.613Z,568.7
2018-08-06T00:22:19.515Z,568.7
2018-08-06T00:23:21.667Z,568.5
2018-08-06T00:24:23.591Z,568.5
2018-08-06T00:25:25.778Z,568.8
2018-08-06T00:26:27.677Z,568.9
2018-08-06T00:27:29.835Z,568.7
2018-08-06T00:28:32.016Z,568.7
2018-08-06T00:29:34.705Z,569
2018-08-06T00:30:36.877Z,569.3
2018-08-06T00:31:39.037Z,569.2
2018-08-06T00:32:41.211Z,569.4
2018-08-06T00:33:43.389Z,569.8
2018-08-06T00:34:45.278Z,569.7
2018-08-06T00:35:47.729Z,570.2
2018-08-06T00:36:50.197Z,570.5
2018-08-06T00:37:52.662Z,570.5
2018-08-06T00:38:54.830Z,570.6
2018-08-06T00:39:56.976Z,570.5
2018-08-06T00:40:59.175Z,570.3
2018-08-06T00:42:01.358Z,570.4
2018-08-06T00:43:03.505Z,570.5
2018-08-06T00:44:05.972Z,570.7
2018-08-06T00:45:08.153Z,570.6
2018-08-06T00:46:10.605Z,571.3
2018-08-06T00:47:12.771Z,571.2
2018-08-06T00:48:14.949Z,571.4
2018-08-06T00:49:17.401Z,571.9
2018-08-06T00:50:19.836Z,571.9
2018-08-06T00:51:22.015Z,571.8
2018-08-06T00:52:24.188Z,572.3
2018-08-06T00:53:26.632Z,572.2
2018-08-06T00:54:29.077Z,572.4
2018-08-06T00:55:31.519Z,572.4
2018-08-06T00:56:33.700Z,572.4
2018-08-06T00:57:36.164Z,572.3
2018-08-06T00:58:38.607Z,572.6
2018-08-06T00:59:41.046Z,572.6
2018-08-06T01:00:42.970Z,573.1
2018-08-06T01:01:45.413Z,572.9
2018-08-06T01:02:47.866Z,573.2
2018-08-06T01:03:50.318Z,573.1
2018-08-06T01:04:52.776Z,573.3
2018-08-06T01:05:54.654Z,573.8
2018-08-06T01:06:57.103Z,573.6
2018-08-06T01:07:59.280Z,573.6
2018-08-06T01:09:01.179Z,573.5
2018-08-06T01:10:03.630Z,573.6
2018-08-06T01:11:05.796Z,573.4
2018-08-06T01:12:07.942Z,573.9
2018-08-06T01:13:10.397Z,573.7
2018-08-06T01:14:12.846Z,574.1
2018-08-06T01:15:15.010Z,574.2
2018-08-06T01:16:17.455Z,574.4
2018-08-06T01:17:19.355Z,573.9
2018-08-06T01:18:21.807Z,574.2
2018-08-06T01:19:23.707Z,574.2
2018-08-06T01:20:26.168Z,574.1
2018-08-06T01:21:28.607Z,574.1
2018-08-06T01:22:30.773Z,574.1
2018-08-06T01:23:33.220Z,574
2018-08-06T01:24:35.421Z,574.1
2018-08-06T01:25:37.337Z,574.2
2018-08-06T01:26:39.547Z,574
2018-08-06T01:27:41.722Z,574.1
2018-08-06T01:28:43.907Z,573.8
2018-08-06T01:29:46.096Z,574
2018-08-06T01:30:48.271Z,574.2
2018-08-06T01:31:50.437Z,574.2
2018-08-06T01:32:52.629Z,574.6
2018-08-06T01:33:54.783Z,574.7
2018-08-06T01:34:56.396Z,574.5
2018-08-06T01:35:58.289Z,574.5
2018-08-06T01:37:00.468Z,574.4
2018-08-06T01:38:02.640Z,574.4
2018-08-06T01:39:05.088Z,574.2
2018-08-06T01:40:06.994Z,574.7
2018-08-06T01:41:08.891Z,574.4
2018-08-06T01:42:11.340Z,575.2
2018-08-06T01:43:13.779Z,575.4
2018-08-06T01:44:16.220Z,574.8
2018-08-06T01:45:18.692Z,575.1
2018-08-06T01:46:20.606Z,575.2
2018-08-06T01:47:22.788Z,575.1
2018-08-06T01:48:25.245Z,575
2018-08-06T01:49:27.430Z,575.1
2018-08-06T01:50:29.868Z,575.1
2018-08-06T01:51:31.767Z,575.1
2018-08-06T01:52:33.675Z,575.1
2018-08-06T01:53:36.117Z,575.2
2018-08-06T01:54:38.022Z,575.1
2018-08-06T01:55:40.177Z,575.3
2018-08-06T01:56:42.088Z,575.3
2018-08-06T01:57:44.536Z,575.5
2018-08-06T01:58:46.429Z,575
2018-08-06T01:59:48.868Z,575
2018-08-06T02:00:51.327Z,574.8
2018-08-06T02:01:53.504Z,574.9
2018-08-06T02:02:55.971Z,575.2
2018-08-06T02:03:58.433Z,574.9
2018-08-06T02:05:00.865Z,574.9
2018-08-06T02:06:03.343Z,575.2
2018-08-06T02:07:05.777Z,575.5
2018-08-06T02:08:08.219Z,575.3
2018-08-06T02:09:10.408Z,576
2018-08-06T02:10:12.874Z,575.8
2018-08-06T02:11:15.324Z,576.2
2018-08-06T02:12:17.216Z,576
2018-08-06T02:13:19.360Z,575.7
2018-08-06T02:14:21.821Z,575.9
2018-08-06T02:15:24.268Z,576.1
2018-08-06T02:16:26.726Z,575.8
2018-08-06T02:17:28.869Z,576.1
2018-08-06T02:18:31.326Z,576
2018-08-06T02:19:33.780Z,575.8
2018-08-06T02:20:35.957Z,576.1
2018-08-06T02:21:38.140Z,575.8
2018-08-06T02:22:40.320Z,576.1
2018-08-06T02:23:42.507Z,575.9
2018-08-06T02:24:44.686Z,576.1
2018-08-06T02:25:46.852Z,575.9
2018-08-06T02:26:49.297Z,576.2
2018-08-06T02:27:51.476Z,576.2
2018-08-06T02:28:53.376Z,576.1
2018-08-06T02:29:55.542Z,576.5
2018-08-06T02:30:57.989Z,575.8
2018-08-06T02:32:00.452Z,575.8
2018-08-06T02:33:02.892Z,575.4
2018-08-06T02:34:05.331Z,575.6
2018-08-06T02:35:07.796Z,575.7
2018-08-06T02:36:10.237Z,575.7
2018-08-06T02:37:12.383Z,575.8
2018-08-06T02:38:14.817Z,576.1
2018-08-06T02:39:17.004Z,576.3
2018-08-06T02:40:19.469Z,576.1
2018-08-06T02:41:21.627Z,576.4
2018-08-06T02:42:24.074Z,576.6
2018-08-06T02:43:26.225Z,576.4
2018-08-06T02:44:28.391Z,576.3
2018-08-06T02:45:30.543Z,576.4
2018-08-06T02:46:32.728Z,576.5
2018-08-06T02:47:35.214Z,576.4
2018-08-06T02:48:37.661Z,576.6
2018-08-06T02:49:39.841Z,576.3
2018-08-06T02:50:42.020Z,576.5
2018-08-06T02:51:44.493Z,576.3
2018-08-06T02:52:46.662Z,576.5
2018-08-06T02:53:48.557Z,576.6
2018-08-06T02:54:51.000Z,576.6
2018-08-06T02:55:53.177Z,576.5
2018-08-06T02:56:55.352Z,576.5
2018-08-06T02:57:57.232Z,576.6
2018-08-06T02:58:59.673Z,576.9
2018-08-06T03:00:02.213Z,576.6
2018-08-06T03:01:04.149Z,577
2018-08-06T03:02:06.581Z,577.1
2018-08-06T03:03:08.727Z,577
2018-08-06T03:04:11.176Z,576.9
2018-08-06T03:05:13.329Z,576.7
2018-08-06T03:06:15.766Z,576.7
2018-08-06T03:07:17.690Z,576.9
2018-08-06T03:08:19.860Z,577.2
2018-08-06T03:09:21.751Z,577.2
2018-08-06T03:10:24.208Z,577
2018-08-06T03:11:26.662Z,577.2
2018-08-06T03:12:28.860Z,577.4
2018-08-06T03:13:30.750Z,577
2018-08-06T03:14:32.919Z,577.4
2018-08-06T03:15:35.089Z,577
2018-08-06T03:16:37.551Z,577.2
2018-08-06T03:17:39.991Z,577.4
2018-08-06T03:18:42.437Z,577.2
2018-08-06T03:19:44.888Z,577
2018-08-06T03:20:47.330Z,576.7
2018-08-06T03:21:49.239Z,577
2018-08-06T03:22:51.697Z,576.7
2018-08-06T03:23:53.878Z,576.6
2018-08-06T03:24:56.062Z,576.5
2018-08-06T03:25:58.498Z,576.4
2018-08-06T03:27:00.710Z,576.5
2018-08-06T03:28:02.868Z,576.6
2018-08-06T03:29:05.060Z,576.5
2018-08-06T03:30:07.244Z,576.5
2018-08-06T03:31:09.437Z,576.6
2018-08-06T03:32:11.896Z,576.5
2018-08-06T03:33:14.336Z,576.5
2018-08-06T03:34:16.488Z,576.5
2018-08-06T03:35:18.671Z,576.7
2018-08-06T03:36:21.117Z,576.5
2018-08-06T03:37:23.042Z,576.8
2018-08-06T03:38:24.926Z,576.8
2018-08-06T03:39:26.826Z,576.6
2018-08-06T03:40:28.752Z,576.8
2018-08-06T03:41:30.377Z,576.7
2018-08-06T03:42:32.256Z,576.4
2018-08-06T03:43:34.717Z,576.4
2018-08-06T03:44:36.611Z,576.5
2018-08-06T03:45:39.063Z,576.6
2018-08-06T03:46:41.236Z,576.5
2018-08-06T03:47:43.117Z,576.3
2018-08-06T03:48:45.561Z,576.9
2018-08-06T03:49:47.709Z,576.5
2018-08-06T03:50:50.157Z,576.3
2018-08-06T03:51:52.349Z,576.2
2018-08-06T03:52:54.526Z,576.3
2018-08-06T03:53:57.056Z,576.2
2018-08-06T03:54:59.237Z,576.4
2018-08-06T03:56:01.168Z,576.3
2018-08-06T03:57:03.359Z,576
2018-08-06T03:58:05.525Z,576.5
2018-08-06T03:59:07.984Z,576.3
2018-08-06T04:00:10.427Z,575.9
2018-08-06T04:01:12.873Z,576
2018-08-06T04:02:14.788Z,576
2018-08-06T04:03:16.965Z,576.2
2018-08-06T04:04:19.160Z,576.1
2018-08-06T04:05:21.335Z,576
2018-08-06T04:06:23.794Z,576.2
2018-08-06T04:07:26.248Z,576.4
2018-08-06T04:08:28.416Z,576.5
2018-08-06T04:09:29.762Z,576.5
2018-08-06T04:10:31.958Z,576.4
2018-08-06T04:11:34.398Z,576.7
2018-08-06T04:12:36.577Z,576.6
2018-08-06T04:13:39.585Z,576.6
2018-08-06T04:14:41.506Z,576.1
2018-08-06T04:15:43.948Z,576.2
2018-08-06T04:16:46.114Z,576.4
2018-08-06T04:17:48.555Z,576.3
2018-08-06T04:18:50.440Z,576.1
2018-08-06T04:19:52.884Z,576
2018-08-06T04:20:55.072Z,576.2
2018-08-06T04:21:57.555Z,576.2
2018-08-06T04:22:59.466Z,576.5
2018-08-06T04:24:01.608Z,576.2
2018-08-06T04:25:04.057Z,576
2018-08-06T04:26:06.230Z,575.9
2018-08-06T04:27:08.678Z,575.9
2018-08-06T04:28:11.141Z,575.9
2018-08-06T04:29:13.310Z,575.8
2018-08-06T04:30:15.771Z,575.7
2018-08-06T04:31:18.222Z,576
2018-08-06T04:32:20.687Z,575.9
2018-08-06T04:33:22.575Z,576.1
2018-08-06T04:34:24.727Z,576.3
2018-08-06T04:35:26.643Z,575.9
2018-08-06T04:36:28.816Z,576
2018-08-06T04:37:30.712Z,576.1
2018-08-06T04:38:33.473Z,575.9
2018-08-06T04:39:35.643Z,576.1
2018-08-06T04:40:37.818Z,575.8
2018-08-06T04:41:40.012Z,575.8
2018-08-06T04:42:42.447Z,575.7
2018-08-06T04:43:44.593Z,575.6
2018-08-06T04:44:46.756Z,575.5
2018-08-06T04:45:48.937Z,575.6
2018-08-06T04:46:51.112Z,575.5
2018-08-06T04:47:53.305Z,575.4
2018-08-06T04:48:55.448Z,575.5
2018-08-06T04:49:57.341Z,575.6
2018-08-06T04:50:59.781Z,575.5
2018-08-06T04:52:01.665Z,575.6
2018-08-06T04:53:03.577Z,575.5
2018-08-06T04:54:06.029Z,575.6
2018-08-06T04:55:08.208Z,575.5
2018-08-06T04:56:10.657Z,575.5
2018-08-06T04:57:13.108Z,575.6
2018-08-06T04:58:15.555Z,575.5
2018-08-06T04:59:17.737Z,575.5
2018-08-06T05:00:20.189Z,575.6
2018-08-06T05:01:22.634Z,575.6
2018-08-06T05:02:25.120Z,575.3
2018-08-06T05:03:27.300Z,575.3
2018-08-06T05:04:29.748Z,575.2
2018-08-06T05:05:32.205Z,575.4
2018-08-06T05:06:33.849Z,575.6
2018-08-06T05:07:35.746Z,575.3
2018-08-06T05:08:37.692Z,575.3
2018-08-06T05:09:40.181Z,575.3
2018-08-06T05:10:42.359Z,575.6
2018-08-06T05:11:44.851Z,575.1
2018-08-06T05:12:47.299Z,575.1
2018-08-06T05:13:49.470Z,574.7
2018-08-06T05:14:51.644Z,575.2
2018-08-06T05:15:53.528Z,575
2018-08-06T05:16:55.976Z,574.8
2018-08-06T05:17:58.422Z,575
2018-08-06T05:19:00.863Z,574.8
2018-08-06T05:20:03.311Z,575
2018-08-06T05:21:05.753Z,574.6
2018-08-06T05:22:08.215Z,574.5
2018-08-06T05:23:10.674Z,574.6
2018-08-06T05:24:13.139Z,574.7
2018-08-06T05:25:15.601Z,574.4
2018-08-06T05:26:17.792Z,574.4
2018-08-06T05:27:19.659Z,573.9
2018-08-06T05:28:22.117Z,574
2018-08-06T05:29:24.565Z,573.6
2018-08-06T05:30:27.012Z,573.5
2018-08-06T05:31:29.463Z,573.7
2018-08-06T05:32:31.923Z,573.9
2018-08-06T05:33:34.370Z,573.6
2018-08-06T05:34:36.569Z,573.6
2018-08-06T05:35:39.000Z,574
2018-08-06T05:36:40.647Z,573.7
2018-08-06T05:37:42.842Z,573.3
2018-08-06T05:38:45.288Z,573.7
2018-08-06T05:39:47.489Z,573.8
2018-08-06T05:40:49.668Z,573.5
2018-08-06T05:41:52.124Z,573.3
2018-08-06T05:42:54.568Z,573.3
2018-08-06T05:43:56.468Z,572.9
2018-08-06T05:44:58.765Z,573.2
2018-08-06T05:46:01.015Z,573.1
2018-08-06T05:47:03.234Z,572.7
2018-08-06T05:48:05.714Z,573
2018-08-06T05:49:08.166Z,572.8
2018-08-06T05:50:10.047Z,572.9
2018-08-06T05:51:12.240Z,572.8
2018-08-06T05:52:14.686Z,573.1
2018-08-06T05:53:16.867Z,572.8
2018-08-06T05:54:19.325Z,572.6
2018-08-06T05:55:21.494Z,572.8
2018-08-06T05:56:23.943Z,572.7
2018-08-06T05:57:26.147Z,572.8
2018-08-06T05:58:28.620Z,572.7
2018-08-06T05:59:30.801Z,573
2018-08-06T06:00:33.258Z,572.6
2018-08-06T06:01:35.723Z,572.7
2018-08-06T06:02:37.706Z,573.1
2018-08-06T06:03:39.876Z,572.7
2018-08-06T06:04:41.768Z,572.6
2018-08-06T06:05:43.919Z,573
2018-08-06T06:06:46.365Z,573.3
2018-08-06T06:07:48.839Z,573
2018-08-06T06:08:51.288Z,572.9
2018-08-06T06:09:53.190Z,573.1
2018-08-06T06:10:55.650Z,573
2018-08-06T06:11:57.557Z,573
2018-08-06T06:13:00.016Z,573.2
2018-08-06T06:14:02.463Z,573.2
2018-08-06T06:15:04.347Z,573.5
2018-08-06T06:16:06.803Z,572.9
2018-08-06T06:17:09.240Z,573.5
2018-08-06T06:18:11.448Z,573.1
2018-08-06T06:19:14.360Z,572.8
2018-08-06T06:20:16.467Z,573.2
2018-08-06T06:21:18.646Z,572.8
2018-08-06T06:22:21.109Z,572.6
2018-08-06T06:23:23.575Z,573.4
2018-08-06T06:24:25.744Z,572.9
2018-08-06T06:25:27.637Z,573
2018-08-06T06:26:29.544Z,573.2
2018-08-06T06:27:31.711Z,572.8
2018-08-06T06:28:34.063Z,573
2018-08-06T06:29:36.554Z,573.1
2018-08-06T06:30:38.741Z,573.1
2018-08-06T06:31:40.662Z,572.8
2018-08-06T06:32:42.557Z,572.7
2018-08-06T06:33:44.190Z,572.8
2018-08-06T06:34:45.630Z,572.5
2018-08-06T06:35:47.810Z,572.3
2018-08-06T06:36:49.985Z,572.8
2018-08-06T06:37:51.894Z,572.5
2018-08-06T06:38:53.783Z,572.5
2018-08-06T06:39:56.248Z,572.5
2018-08-06T06:40:58.147Z,572.6
2018-08-06T06:42:00.031Z,572.2
2018-08-06T06:43:01.944Z,572.6
2018-08-06T06:44:04.130Z,572.3
2018-08-06T06:45:06.577Z,572.2
2018-08-06T06:46:09.043Z,572.3
2018-08-06T06:47:10.951Z,572.6
2018-08-06T06:48:12.861Z,572.6
2018-08-06T06:49:15.238Z,572.8
2018-08-06T06:50:17.418Z,572.6
2018-08-06T06:51:19.888Z,572.4
2018-08-06T06:52:22.063Z,572.2
2018-08-06T06:53:23.982Z,572.5
2018-08-06T06:54:26.534Z,572.3
2018-08-06T06:55:28.783Z,572.4
2018-08-06T06:56:30.957Z,572.2
2018-08-06T06:57:33.113Z,572.5
2018-08-06T06:58:35.563Z,572.5
2018-08-06T06:59:37.740Z,572.6
2018-08-06T07:00:40.203Z,572.7
2018-08-06T07:01:42.655Z,572.7
2018-08-06T07:02:45.115Z,572.7
2018-08-06T07:03:47.285Z,572.8
2018-08-06T07:04:49.738Z,572.9
2018-08-06T07:05:52.188Z,573.1
2018-08-06T07:06:54.337Z,573
2018-08-06T07:07:56.791Z,572.8
2018-08-06T07:08:59.236Z,573
2018-08-06T07:10:01.115Z,573.2
2018-08-06T07:11:03.305Z,573.1
2018-08-06T07:12:05.764Z,573.1
2018-08-06T07:13:08.211Z,573.1
2018-08-06T07:14:11.025Z,573.1
2018-08-06T07:15:13.208Z,573.3
2018-08-06T07:16:15.658Z,573.4
2018-08-06T07:17:17.842Z,573.7
2018-08-06T07:18:20.311Z,573.4
2018-08-06T07:19:22.759Z,573.2
2018-08-06T07:20:25.990Z,573.6
2018-08-06T07:21:28.470Z,573.2
2018-08-06T07:22:30.933Z,573
2018-08-06T07:23:32.804Z,573.4
2018-08-06T07:24:35.258Z,573.2
2018-08-06T07:25:37.442Z,573.8
2018-08-06T07:26:39.341Z,572.8
2018-08-06T07:27:41.804Z,573.3
2018-08-06T07:28:43.689Z,572.9
2018-08-06T07:29:45.897Z,573
2018-08-06T07:30:48.349Z,573.5
2018-08-06T07:31:50.797Z,573.3
2018-08-06T07:32:52.976Z,573.3
2018-08-06T07:33:55.168Z,574.1
2018-08-06T07:34:57.067Z,573.8
2018-08-06T07:35:58.960Z,573.5
2018-08-06T07:37:01.402Z,573.4
2018-08-06T07:38:03.848Z,573.3
2018-08-06T07:39:06.313Z,573.4
2018-08-06T07:40:08.433Z,573.7
2018-08-06T07:41:10.667Z,573.8
2018-08-06T07:42:13.121Z,573.8
2018-08-06T07:43:16.230Z,573.9
2018-08-06T07:44:18.414Z,573.9
2018-08-06T07:45:20.290Z,573.7
2018-08-06T07:46:22.178Z,573.8
2018-08-06T07:47:24.641Z,574.2
2018-08-06T07:48:27.105Z,574.3
2018-08-06T07:49:29.461Z,573.9
2018-08-06T07:50:31.284Z,574.1
2018-08-06T07:51:33.202Z,573.9
2018-08-06T07:52:35.366Z,574.4
2018-08-06T07:53:37.813Z,573.7
2018-08-06T07:54:39.695Z,573.9
2018-08-06T07:55:41.863Z,574.2
2018-08-06T07:56:43.757Z,574.1
2018-08-06T07:57:45.945Z,574.5
2018-08-06T07:58:48.136Z,574.6
2018-08-06T07:59:50.798Z,574.4
2018-08-06T08:00:53.277Z,574.7
2018-08-06T08:01:55.456Z,575
2018-08-06T08:02:57.911Z,574.6
2018-08-06T08:04:00.086Z,574.6
2018-08-06T08:05:02.264Z,574.7
2018-08-06T08:06:04.179Z,574.9
2018-08-06T08:07:06.627Z,574.3
2018-08-06T08:08:09.080Z,574.6
2018-08-06T08:09:11.258Z,574.7
2018-08-06T08:10:13.440Z,574.9
2018-08-06T08:11:15.323Z,574.6
2018-08-06T08:12:17.794Z,574.9
2018-08-06T08:13:20.260Z,574.9
2018-08-06T08:14:22.438Z,575.1
2018-08-06T08:15:24.314Z,575.5
2018-08-06T08:16:26.492Z,574.9
2018-08-06T08:17:29.034Z,575.2
2018-08-06T08:18:31.246Z,575.2
2018-08-06T08:19:32.987Z,575.4
2018-08-06T08:20:35.124Z,575.4
2018-08-06T08:21:37.309Z,575.3
2018-08-06T08:22:39.461Z,575.2
2018-08-06T08:23:41.130Z,575.7
2018-08-06T08:24:43.066Z,575.5
2018-08-06T08:25:45.266Z,575.9
2018-08-06T08:26:46.877Z,575.5
2018-08-06T08:27:49.329Z,576.4
2018-08-06T08:28:51.790Z,576.1
2018-08-06T08:29:53.700Z,576
2018-08-06T08:30:55.886Z,575.6
2018-08-06T08:31:57.783Z,576.2
2018-08-06T08:32:59.676Z,576.2
2018-08-06T08:34:02.501Z,576.1
2018-08-06T08:35:04.729Z,576.4
2018-08-06T08:36:07.198Z,576.1
2018-08-06T08:37:09.081Z,576
2018-08-06T08:38:11.255Z,576.1
2018-08-06T08:39:13.446Z,576.2
2018-08-06T08:40:15.899Z,575.7
2018-08-06T08:41:18.364Z,576.1
2018-08-06T08:42:20.011Z,576.1
2018-08-06T08:43:22.465Z,576
2018-08-06T08:44:24.906Z,576
2018-08-06T08:45:27.604Z,576.8
2018-08-06T08:46:29.829Z,576.1
2018-08-06T08:47:32.015Z,576.4
2018-08-06T08:48:33.923Z,576.8
2018-08-06T08:49:36.156Z,576.3
2018-08-06T08:50:38.358Z,576.3
2018-08-06T08:51:40.544Z,576.5
2018-08-06T08:52:42.731Z,576.2
2018-08-06T08:53:44.963Z,576.6
2018-08-06T08:54:47.408Z,576.4
2018-08-06T08:55:49.580Z,576.6
2018-08-06T08:56:51.761Z,577.1
2018-08-06T08:57:53.925Z,577
2018-08-06T08:58:57.079Z,577.2
2018-08-06T08:59:59.010Z,577.1
2018-08-06T09:01:01.468Z,577.1
2018-08-06T09:02:03.342Z,577.4
2018-08-06T09:03:05.807Z,577.5
2018-08-06T09:04:07.982Z,577.6
2018-08-06T09:05:09.860Z,577.3
2018-08-06T09:06:12.334Z,577.4
2018-08-06T09:07:14.913Z,577.1
2018-08-06T09:08:17.087Z,577.2
2018-08-06T09:09:19.579Z,577.9
2018-08-06T09:10:22.040Z,577.8
2018-08-06T09:11:23.944Z,577.5
2018-08-06T09:12:26.388Z,577.7
2018-08-06T09:13:28.558Z,577.5
2018-08-06T09:14:31.016Z,577.9
2018-08-06T09:15:32.920Z,577.9
2018-08-06T09:16:35.105Z,577.9
2018-08-06T09:17:37.019Z,578
2018-08-06T09:18:39.198Z,577.8
2018-08-06T09:19:41.657Z,577.5
2018-08-06T09:20:43.835Z,577.9
2018-08-06T09:21:46.029Z,577.8
2018-08-06T09:22:48.486Z,577.6
2018-08-06T09:23:50.393Z,577.7
2018-08-06T09:24:52.857Z,577.6
2018-08-06T09:25:54.749Z,577.8
2018-08-06T09:26:56.936Z,577.6
2018-08-06T09:27:59.396Z,578.1
2018-08-06T09:29:01.552Z,578.1
2018-08-06T09:30:04.008Z,578
2018-08-06T09:31:06.179Z,578
2018-08-06T09:32:08.333Z,577.8
2018-08-06T09:33:10.781Z,578.1
2018-08-06T09:34:12.949Z,577.9
2018-08-06T09:35:15.398Z,578.1
2018-08-06T09:36:17.580Z,578.1
2018-08-06T09:37:19.768Z,578.4
2018-08-06T09:38:22.238Z,578.5
2018-08-06T09:39:24.426Z,578.2
2018-08-06T09:40:26.401Z,578.2
2018-08-06T09:41:27.987Z,578.5
2018-08-06T09:42:30.168Z,578.5
2018-08-06T09:43:32.364Z,578.5
2018-08-06T09:44:34.565Z,578.3
2018-08-06T09:45:37.016Z,578.6
2018-08-06T09:46:38.377Z,578.9
2018-08-06T09:47:40.828Z,578.9
2018-08-06T09:48:43.474Z,579.1
2018-08-06T09:49:45.781Z,579.4
2018-08-06T09:50:47.681Z,579.9
2018-08-06T09:51:49.877Z,579.5
2018-08-06T09:52:51.862Z,579.6
2018-08-06T09:53:54.336Z,579.9
2018-08-06T09:54:56.788Z,579.6
2018-08-06T09:55:59.269Z,580.1
2018-08-06T09:57:01.926Z,579.4
2018-08-06T09:58:04.185Z,579.6
2018-08-06T09:59:06.059Z,580
2018-08-06T10:00:08.236Z,579.9
2018-08-06T10:01:10.685Z,580.1
2018-08-06T10:02:12.589Z,580.3
2018-08-06T10:03:15.060Z,580.3
2018-08-06T10:04:16.935Z,580.2
2018-08-06T10:05:19.149Z,580.3
2018-08-06T10:06:22.929Z,580.5
2018-08-06T10:07:25.001Z,580.5
2018-08-06T10:08:27.504Z,580.4
2018-08-06T10:09:29.673Z,580.5
2018-08-06T10:10:32.132Z,580.1
2018-08-06T10:11:34.581Z,580.2
2018-08-06T10:12:36.206Z,580.7
2018-08-06T10:13:38.385Z,580.9
2018-08-06T10:14:40.832Z,580.9
2018-08-06T10:15:43.292Z,580.7
2018-08-06T10:16:45.747Z,581.3
2018-08-06T10:17:48.199Z,580.7
2018-08-06T10:18:51.218Z,581
2018-08-06T10:19:53.441Z,581.3
2018-08-06T10:20:55.370Z,581
2018-08-06T10:21:57.578Z,581.2
2018-08-06T10:22:59.763Z,581.3
2018-08-06T10:24:01.681Z,581.5
2018-08-06T10:25:03.610Z,582
2018-08-06T10:26:06.057Z,581.5
2018-08-06T10:27:08.511Z,582.2
2018-08-06T10:28:11.008Z,582.2
2018-08-06T10:29:12.909Z,582.3
2018-08-06T10:30:15.716Z,582.4
2018-08-06T10:31:17.930Z,582.4
2018-08-06T10:32:19.849Z,582.6
2018-08-06T10:33:22.031Z,582.9
2018-08-06T10:34:24.205Z,582.8
2018-08-06T10:35:26.690Z,582.7
2018-08-06T10:36:28.847Z,583
2018-08-06T10:37:31.312Z,583.1
2018-08-06T10:38:33.758Z,582.7
2018-08-06T10:39:35.632Z,583.1
2018-08-06T10:40:38.081Z,582.5
2018-08-06T10:41:40.266Z,582.9
2018-08-06T10:42:42.720Z,582.6
2018-08-06T10:43:45.258Z,582.6
2018-08-06T10:44:47.729Z,583.4
2018-08-06T10:45:49.915Z,583.2
2018-08-06T10:46:52.374Z,583.3
2018-08-06T10:47:54.562Z,583.9
2018-08-06T10:48:56.437Z,584
2018-08-06T10:49:58.625Z,583.9
2018-08-06T10:51:00.796Z,583.2
2018-08-06T10:52:02.968Z,583.7
2018-08-06T10:53:05.147Z,583.4
2018-08-06T10:54:07.045Z,584
2018-08-06T10:55:09.230Z,584
2018-08-06T10:56:11.886Z,584.1
2018-08-06T10:57:13.566Z,584.3
2018-08-06T10:58:15.733Z,585.1
2018-08-06T10:59:17.911Z,584.7
2018-08-06T11:00:20.077Z,584.7
2018-08-06T11:01:22.528Z,584.7
2018-08-06T11:02:24.724Z,584.8
2018-08-06T11:03:27.176Z,584.7
2018-08-06T11:04:29.398Z,584.9
2018-08-06T11:05:31.037Z,584.5
2018-08-06T11:06:32.732Z,585.1
2018-08-06T11:07:34.921Z,584.6
2018-08-06T11:08:37.102Z,584.8
2018-08-06T11:09:39.563Z,584.8
2018-08-06T11:10:42.036Z,584.8
2018-08-06T11:11:44.498Z,585.6
2018-08-06T11:12:46.683Z,585.4
2018-08-06T11:13:48.867Z,585
2018-08-06T11:14:51.328Z,585.2
2018-08-06T11:15:53.241Z,584.9
2018-08-06T11:16:55.695Z,585.4
2018-08-06T11:17:57.875Z,586.1
2018-08-06T11:19:00.056Z,585.7
2018-08-06T11:20:02.212Z,585.4
2018-08-06T11:21:04.661Z,585.4
2018-08-06T11:22:06.810Z,585.5
2018-08-06T11:23:09.265Z,586
2018-08-06T11:24:11.724Z,586.2
2018-08-06T11:25:13.904Z,586.3
2018-08-06T11:26:16.109Z,586
2018-08-06T11:27:18.292Z,585.9
2018-08-06T11:28:20.561Z,585.9
2018-08-06T11:29:22.748Z,586.3
2018-08-06T11:30:24.350Z,586.1
2018-08-06T11:31:26.541Z,585.8
2018-08-06T11:32:28.728Z,585.6
2018-08-06T11:33:30.642Z,586.4
2018-08-06T11:34:32.838Z,586.7
2018-08-06T11:35:35.295Z,586.4
2018-08-06T11:36:37.565Z,586.7
2018-08-06T11:37:40.025Z,586.7
2018-08-06T11:38:42.191Z,586.7
2018-08-06T11:39:44.661Z,586.5
2018-08-06T11:40:47.089Z,587.6
2018-08-06T11:41:49.263Z,586.9
2018-08-06T11:42:50.885Z,587.2
2018-08-06T11:43:53.327Z,587.2
2018-08-06T11:44:55.511Z,587.3
2018-08-06T11:45:58.039Z,587.4
2018-08-06T11:47:00.553Z,587.6
2018-08-06T11:48:03.014Z,587.6
2018-08-06T11:49:05.182Z,587.5
2018-08-06T11:50:07.631Z,587.8
2018-08-06T11:51:09.795Z,587.8
2018-08-06T11:52:12.236Z,588
2018-08-06T11:53:14.687Z,588.3
2018-08-06T11:54:17.149Z,588.2
2018-08-06T11:55:19.602Z,588.3
2018-08-06T11:56:22.123Z,588.5
2018-08-06T11:57:23.180Z,588.7
2018-08-06T11:58:25.639Z,589
2018-08-06T11:59:27.833Z,588.9
2018-08-06T12:00:30.292Z,589
2018-08-06T12:01:32.485Z,588.9
2018-08-06T12:02:34.658Z,588.7
2018-08-06T12:03:36.826Z,588.9
2018-08-06T12:04:39.000Z,589
2018-08-06T12:05:41.212Z,589.1
2018-08-06T12:06:43.383Z,589.4
2018-08-06T12:07:45.563Z,589.8
2018-08-06T12:08:48.028Z,589.5
2018-08-06T12:09:49.642Z,589.2
2018-08-06T12:10:52.092Z,589.4
2018-08-06T12:11:54.540Z,589.4
2018-08-06T12:12:56.993Z,589.6
2018-08-06T12:13:59.482Z,590
2018-08-06T12:15:01.731Z,589.9
2018-08-06T12:16:03.904Z,590.1
2018-08-06T12:17:06.076Z,589.9
2018-08-06T12:18:08.267Z,590.5
2018-08-06T12:19:09.917Z,589.8
2018-08-06T12:20:12.163Z,591
2018-08-06T12:21:14.082Z,590.7
2018-08-06T12:22:16.256Z,590.7
2018-08-06T12:23:18.176Z,590.4
2018-08-06T12:24:19.855Z,590.8
2018-08-06T12:25:22.019Z,591
2018-08-06T12:26:25.162Z,591.1
2018-08-06T12:27:27.734Z,591.3
2018-08-06T12:28:29.616Z,591.6
2018-08-06T12:29:31.779Z,591.2
2018-08-06T12:30:34.248Z,591.2
2018-08-06T12:31:36.317Z,591.2
2018-08-06T12:32:38.261Z,591.5
2018-08-06T12:33:40.339Z,591
2018-08-06T12:34:42.269Z,591.8
2018-08-06T12:35:44.441Z,590.9
2018-08-06T12:36:46.880Z,591.8
2018-08-06T12:37:49.068Z,591.7
2018-08-06T12:38:51.518Z,591.3
2018-08-06T12:39:53.962Z,591.7
2018-08-06T12:40:56.422Z,591.6
2018-08-06T12:41:58.335Z,591.8
2018-08-06T12:43:00.525Z,591.8
2018-08-06T12:44:02.981Z,591.6
2018-08-06T12:45:05.141Z,591.5
2018-08-06T12:46:07.441Z,591.5
2018-08-06T12:47:09.893Z,591.5
2018-08-06T12:48:11.802Z,591.5
2018-08-06T12:49:13.430Z,591.7
2018-08-06T12:50:15.879Z,591.3
2018-08-06T12:51:18.057Z,591.8
2018-08-06T12:52:20.238Z,592.2
2018-08-06T12:53:22.427Z,591.9
2018-08-06T12:54:24.365Z,591.7
2018-08-06T12:55:26.930Z,592.3
2018-08-06T12:56:29.140Z,592.8
2018-08-06T12:57:31.340Z,592.5
2018-08-06T12:58:33.518Z,591.8
2018-08-06T12:59:35.982Z,592.7
2018-08-06T13:00:38.442Z,593.2
2018-08-06T13:01:40.612Z,593.5
2018-08-06T13:02:43.080Z,593.3
2018-08-06T13:03:45.257Z,593.5
2018-08-06T13:04:47.158Z,593.9
2018-08-06T13:05:49.347Z,594
2018-08-06T13:06:51.550Z,594.2
2018-08-06T13:07:53.999Z,594.5
2018-08-06T13:08:56.449Z,594.2
2018-08-06T13:09:58.622Z,594.4
2018-08-06T13:11:00.532Z,595.1
2018-08-06T13:12:03.069Z,595
2018-08-06T13:13:05.520Z,595
2018-08-06T13:14:07.986Z,594.6
2018-08-06T13:15:10.152Z,594.7
2018-08-06T13:16:12.297Z,594.3
2018-08-06T13:17:14.744Z,595
2018-08-06T13:18:17.383Z,595.3
2018-08-06T13:19:19.547Z,595.1
2018-08-06T13:20:21.187Z,595.3
2018-08-06T13:21:23.383Z,595.3
2018-08-06T13:22:25.292Z,595.8
2018-08-06T13:23:27.731Z,595.5
2018-08-06T13:24:30.203Z,595.7
2018-08-06T13:25:32.780Z,595.2
2018-08-06T13:26:34.928Z,595.7